Terminal Aerodrome Forecast
Issued by NWS

Home | Current Version | Previous Version | Text Only | Print | Product List | Glossary On
Versions: 1 2 3 4 5 6 7 8 9 10 11 12 13 14 15 16 17 18 19 20 21 22 23
000
FTUS43 KIND 291700
TAFHUF
TAF
KHUF 291722Z 2918/3018 20011G19KT P6SM VCTS SCT035CB BKN080
     FM300200 19006KT P6SM BKN080
     FM301000 18005KT 5SM -SHRA BKN025=

USA.gov is the U.S. government's official web portal to all federal, state and local government web resources and services.